sensor_id;sensor_type;location;lat;lon;timestamp;P1;durP1;ratioP1;P2;durP2;ratioP2
29984;SDS011;17387;42.690;23.328;2024-01-07T00:01:38;52.63;;;28.17;;
29984;SDS011;17387;42.690;23.328;2024-01-07T00:04:03;50.15;;;27.23;;
29984;SDS011;17387;42.690;23.328;2024-01-07T00:06:28;49.05;;;27.67;;
29984;SDS011;17387;42.690;23.328;2024-01-07T00:08:54;53.75;;;27.75;;
29984;SDS011;17387;42.690;23.328;2024-01-07T00:11:19;52.60;;;26.92;;
29984;SDS011;17387;42.690;23.328;2024-01-07T00:13:44;48.97;;;26.98;;
29984;SDS011;17387;42.690;23.328;2024-01-07T00:16:10;49.70;;;26.63;;
29984;SDS011;17387;42.690;23.328;2024-01-07T00:18:35;52.78;;;27.50;;
29984;SDS011;17387;42.690;23.328;2024-01-07T00:21:00;46.63;;;27.15;;
29984;SDS011;17387;42.690;23.328;2024-01-07T00:23:25;51.15;;;28.08;;
29984;SDS011;17387;42.690;23.328;2024-01-07T00:25:51;51.38;;;27.85;;
29984;SDS011;17387;42.690;23.328;2024-01-07T00:28:16;46.63;;;27.10;;
29984;SDS011;17387;42.690;23.328;2024-01-07T00:30:41;48.92;;;28.95;;
29984;SDS011;17387;42.690;23.328;2024-01-07T00:33:07;48.70;;;27.67;;
29984;SDS011;17387;42.690;23.328;2024-01-07T00:35:32;51.05;;;28.17;;
29984;SDS011;17387;42.690;23.328;2024-01-07T00:37:57;48.65;;;26.65;;
29984;SDS011;17387;42.690;23.328;2024-01-07T00:40:23;59.42;;;32.67;;
29984;SDS011;17387;42.690;23.328;2024-01-07T00:42:48;46.42;;;27.92;;
29984;SDS011;17387;42.690;23.328;2024-01-07T00:45:14;51.72;;;27.10;;
29984;SDS011;17387;42.690;23.328;2024-01-07T00:47:39;49.67;;;27.23;;
29984;SDS011;17387;42.690;23.328;2024-01-07T00:50:04;51.27;;;26.83;;
29984;SDS011;17387;42.690;23.328;2024-01-07T00:52:30;48.97;;;26.88;;
29984;SDS011;17387;42.690;23.328;2024-01-07T00:54:55;44.35;;;25.67;;
29984;SDS011;17387;42.690;23.328;2024-01-07T00:57:20;48.17;;;26.17;;
29984;SDS011;17387;42.690;23.328;2024-01-07T00:59:45;43.35;;;25.08;;
29984;SDS011;17387;42.690;23.328;2024-01-07T01:02:11;42.63;;;25.30;;
29984;SDS011;17387;42.690;23.328;2024-01-07T01:04:38;45.87;;;26.20;;
29984;SDS011;17387;42.690;23.328;2024-01-07T01:07:03;46.90;;;26.85;;
29984;SDS011;17387;42.690;23.328;2024-01-07T01:09:28;47.60;;;25.23;;
29984;SDS011;17387;42.690;23.328;2024-01-07T01:11:54;45.85;;;25.67;;
29984;SDS011;17387;42.690;23.328;2024-01-07T01:14:20;46.67;;;24.92;;
29984;SDS011;17387;42.690;23.328;2024-01-07T01:16:46;41.50;;;24.10;;
29984;SDS011;17387;42.690;23.328;2024-01-07T01:19:11;40.17;;;23.80;;
29984;SDS011;17387;42.690;23.328;2024-01-07T01:21:36;44.95;;;24.33;;
29984;SDS011;17387;42.690;23.328;2024-01-07T01:24:02;40.53;;;23.30;;
29984;SDS011;17387;42.690;23.328;2024-01-07T01:26:27;42.30;;;24.13;;
29984;SDS011;17387;42.690;23.328;2024-01-07T01:28:52;43.92;;;24.77;;
29984;SDS011;17387;42.690;23.328;2024-01-07T01:31:17;40.13;;;23.50;;
29984;SDS011;17387;42.690;23.328;2024-01-07T01:33:43;44.47;;;24.45;;
29984;SDS011;17387;42.690;23.328;2024-01-07T01:36:08;45.47;;;24.83;;
29984;SDS011;17387;42.690;23.328;2024-01-07T01:38:34;47.80;;;24.45;;
29984;SDS011;17387;42.690;23.328;2024-01-07T01:40:59;42.20;;;23.08;;
29984;SDS011;17387;42.690;23.328;2024-01-07T01:43:24;41.83;;;23.77;;
29984;SDS011;17387;42.690;23.328;2024-01-07T01:45:50;40.67;;;24.15;;
29984;SDS011;17387;42.690;23.328;2024-01-07T01:48:15;43.80;;;24.00;;
29984;SDS011;17387;42.690;23.328;2024-01-07T01:50:41;44.97;;;24.40;;
29984;SDS011;17387;42.690;23.328;2024-01-07T01:53:06;43.97;;;24.00;;
29984;SDS011;17387;42.690;23.328;2024-01-07T01:55:31;40.53;;;24.05;;
29984;SDS011;17387;42.690;23.328;2024-01-07T01:57:57;47.63;;;25.35;;
29984;SDS011;17387;42.690;23.328;2024-01-07T02:00:24;43.17;;;24.98;;
29984;SDS011;17387;42.690;23.328;2024-01-07T02:02:50;44.60;;;25.30;;
29984;SDS011;17387;42.690;23.328;2024-01-07T02:05:15;42.70;;;25.10;;
29984;SDS011;17387;42.690;23.328;2024-01-07T02:07:40;42.72;;;25.23;;
29984;SDS011;17387;42.690;23.328;2024-01-07T02:10:05;42.75;;;25.38;;
29984;SDS011;17387;42.690;23.328;2024-01-07T02:12:31;41.00;;;24.77;;
29984;SDS011;17387;42.690;23.328;2024-01-07T02:14:56;46.05;;;25.27;;
29984;SDS011;17387;42.690;23.328;2024-01-07T02:17:21;42.73;;;25.13;;
29984;SDS011;17387;42.690;23.328;2024-01-07T02:19:47;41.72;;;23.65;;
29984;SDS011;17387;42.690;23.328;2024-01-07T02:22:12;44.17;;;25.67;;
29984;SDS011;17387;42.690;23.328;2024-01-07T02:24:37;45.05;;;24.38;;
29984;SDS011;17387;42.690;23.328;2024-01-07T02:27:02;39.83;;;24.97;;
29984;SDS011;17387;42.690;23.328;2024-01-07T02:29:28;53.50;;;29.02;;
29984;SDS011;17387;42.690;23.328;2024-01-07T02:31:54;45.35;;;26.63;;
29984;SDS011;17387;42.690;23.328;2024-01-07T02:34:19;43.58;;;25.95;;
29984;SDS011;17387;42.690;23.328;2024-01-07T02:36:44;46.17;;;25.85;;
29984;SDS011;17387;42.690;23.328;2024-01-07T02:39:09;50.58;;;28.63;;
29984;SDS011;17387;42.690;23.328;2024-01-07T02:41:35;48.05;;;26.13;;
29984;SDS011;17387;42.690;23.328;2024-01-07T02:44:00;51.92;;;27.58;;
29984;SDS011;17387;42.690;23.328;2024-01-07T02:46:25;47.53;;;27.07;;
29984;SDS011;17387;42.690;23.328;2024-01-07T02:48:50;50.70;;;27.65;;
29984;SDS011;17387;42.690;23.328;2024-01-07T02:51:16;44.97;;;26.13;;
29984;SDS011;17387;42.690;23.328;2024-01-07T02:53:41;42.45;;;25.10;;
29984;SDS011;17387;42.690;23.328;2024-01-07T02:56:06;43.17;;;25.10;;
29984;SDS011;17387;42.690;23.328;2024-01-07T02:58:33;41.90;;;23.90;;
29984;SDS011;17387;42.690;23.328;2024-01-07T03:00:58;46.88;;;24.75;;
29984;SDS011;17387;42.690;23.328;2024-01-07T03:03:24;48.75;;;25.42;;
29984;SDS011;17387;42.690;23.328;2024-01-07T03:05:49;45.28;;;25.88;;
29984;SDS011;17387;42.690;23.328;2024-01-07T03:08:14;42.47;;;26.08;;
29984;SDS011;17387;42.690;23.328;2024-01-07T03:10:39;42.47;;;24.15;;
29984;SDS011;17387;42.690;23.328;2024-01-07T03:13:05;45.25;;;23.77;;
29984;SDS011;17387;42.690;23.328;2024-01-07T03:15:30;43.05;;;23.67;;
29984;SDS011;17387;42.690;23.328;2024-01-07T03:17:56;41.55;;;24.35;;
29984;SDS011;17387;42.690;23.328;2024-01-07T03:20:22;39.88;;;22.17;;
29984;SDS011;17387;42.690;23.328;2024-01-07T03:22:47;38.35;;;21.67;;
29984;SDS011;17387;42.690;23.328;2024-01-07T03:25:12;37.83;;;21.40;;
29984;SDS011;17387;42.690;23.328;2024-01-07T03:27:38;36.13;;;21.13;;
29984;SDS011;17387;42.690;23.328;2024-01-07T03:30:04;32.13;;;19.55;;
29984;SDS011;17387;42.690;23.328;2024-01-07T03:32:29;30.55;;;18.08;;
29984;SDS011;17387;42.690;23.328;2024-01-07T03:34:54;33.33;;;19.27;;
29984;SDS011;17387;42.690;23.328;2024-01-07T03:37:19;33.60;;;18.67;;
29984;SDS011;17387;42.690;23.328;2024-01-07T03:39:46;35.13;;;18.80;;
29984;SDS011;17387;42.690;23.328;2024-01-07T03:42:11;28.80;;;17.02;;
29984;SDS011;17387;42.690;23.328;2024-01-07T03:44:39;29.73;;;17.10;;
29984;SDS011;17387;42.690;23.328;2024-01-07T03:47:04;23.20;;;15.25;;
29984;SDS011;17387;42.690;23.328;2024-01-07T03:49:30;22.10;;;13.65;;
29984;SDS011;17387;42.690;23.328;2024-01-07T03:51:55;22.07;;;11.70;;
29984;SDS011;17387;42.690;23.328;2024-01-07T03:54:20;18.35;;;10.35;;
29984;SDS011;17387;42.690;23.328;2024-01-07T03:56:46;18.42;;;10.45;;
29984;SDS011;17387;42.690;23.328;2024-01-07T03:59:11;13.75;;;8.70;;
29984;SDS011;17387;42.690;23.328;2024-01-07T04:01:36;15.00;;;8.35;;
29984;SDS011;17387;42.690;23.328;2024-01-07T04:04:01;13.20;;;7.63;;
29984;SDS011;17387;42.690;23.328;2024-01-07T04:06:28;16.95;;;8.23;;
29984;SDS011;17387;42.690;23.328;2024-01-07T04:08:53;16.98;;;8.52;;
29984;SDS011;17387;42.690;23.328;2024-01-07T04:11:18;20.05;;;10.77;;
29984;SDS011;17387;42.690;23.328;2024-01-07T04:13:44;21.33;;;10.98;;
29984;SDS011;17387;42.690;23.328;2024-01-07T04:16:15;20.43;;;11.80;;
29984;SDS011;17387;42.690;23.328;2024-01-07T04:18:41;21.05;;;12.20;;
29984;SDS011;17387;42.690;23.328;2024-01-07T04:21:08;19.13;;;11.95;;
29984;SDS011;17387;42.690;23.328;2024-01-07T04:23:34;20.35;;;11.05;;
29984;SDS011;17387;42.690;23.328;2024-01-07T04:25:59;12.23;;;7.47;;
29984;SDS011;17387;42.690;23.328;2024-01-07T04:28:24;16.92;;;9.10;;
29984;SDS011;17387;42.690;23.328;2024-01-07T04:30:49;13.95;;;7.35;;
29984;SDS011;17387;42.690;23.328;2024-01-07T04:33:15;11.25;;;7.22;;
29984;SDS011;17387;42.690;23.328;2024-01-07T04:35:40;20.00;;;10.68;;
29984;SDS011;17387;42.690;23.328;2024-01-07T04:38:06;19.07;;;12.60;;
29984;SDS011;17387;42.690;23.328;2024-01-07T04:40:31;23.45;;;11.48;;
29984;SDS011;17387;42.690;23.328;2024-01-07T04:42:56;11.80;;;7.70;;
29984;SDS011;17387;42.690;23.328;2024-01-07T04:45:21;14.52;;;8.00;;
29984;SDS011;17387;42.690;23.328;2024-01-07T04:47:46;15.97;;;9.10;;
29984;SDS011;17387;42.690;23.328;2024-01-07T04:50:12;12.27;;;7.80;;
29984;SDS011;17387;42.690;23.328;2024-01-07T04:52:39;9.75;;;7.47;;
29984;SDS011;17387;42.690;23.328;2024-01-07T04:55:04;14.53;;;7.77;;
29984;SDS011;17387;42.690;23.328;2024-01-07T04:57:29;13.02;;;8.38;;
29984;SDS011;17387;42.690;23.328;2024-01-07T04:59:54;12.90;;;9.20;;
29984;SDS011;17387;42.690;23.328;2024-01-07T05:02:20;15.40;;;10.35;;
29984;SDS011;17387;42.690;23.328;2024-01-07T05:04:45;14.30;;;9.40;;
29984;SDS011;17387;42.690;23.328;2024-01-07T05:07:10;15.73;;;10.48;;
29984;SDS011;17387;42.690;23.328;2024-01-07T05:09:35;19.60;;;11.77;;
29984;SDS011;17387;42.690;23.328;2024-01-07T05:12:01;18.73;;;11.77;;
29984;SDS011;17387;42.690;23.328;2024-01-07T05:14:26;20.95;;;12.35;;
29984;SDS011;17387;42.690;23.328;2024-01-07T05:16:52;20.35;;;12.13;;
29984;SDS011;17387;42.690;23.328;2024-01-07T05:19:18;23.60;;;13.27;;
29984;SDS011;17387;42.690;23.328;2024-01-07T05:21:43;21.87;;;13.17;;
29984;SDS011;17387;42.690;23.328;2024-01-07T05:24:08;20.23;;;12.43;;
29984;SDS011;17387;42.690;23.328;2024-01-07T05:26:43;21.95;;;13.23;;
29984;SDS011;17387;42.690;23.328;2024-01-07T05:29:08;21.67;;;12.57;;
29984;SDS011;17387;42.690;23.328;2024-01-07T05:31:34;20.27;;;12.43;;
29984;SDS011;17387;42.690;23.328;2024-01-07T05:33:59;21.70;;;12.23;;
29984;SDS011;17387;42.690;23.328;2024-01-07T05:36:24;22.30;;;12.15;;
29984;SDS011;17387;42.690;23.328;2024-01-07T05:38:49;22.65;;;12.48;;
29984;SDS011;17387;42.690;23.328;2024-01-07T05:41:15;20.73;;;12.85;;
29984;SDS011;17387;42.690;23.328;2024-01-07T05:43:40;20.95;;;13.05;;
29984;SDS011;17387;42.690;23.328;2024-01-07T05:46:05;19.67;;;12.52;;
29984;SDS011;17387;42.690;23.328;2024-01-07T05:48:40;23.02;;;12.88;;
29984;SDS011;17387;42.690;23.328;2024-01-07T05:51:05;21.85;;;12.93;;
29984;SDS011;17387;42.690;23.328;2024-01-07T05:53:30;18.52;;;12.52;;
29984;SDS011;17387;42.690;23.328;2024-01-07T05:55:55;19.85;;;13.85;;
29984;SDS011;17387;42.690;23.328;2024-01-07T05:58:21;19.52;;;12.88;;
29984;SDS011;17387;42.690;23.328;2024-01-07T06:00:46;18.73;;;12.57;;
29984;SDS011;17387;42.690;23.328;2024-01-07T06:03:11;18.67;;;11.27;;
29984;SDS011;17387;42.690;23.328;2024-01-07T06:05:37;16.80;;;12.05;;
29984;SDS011;17387;42.690;23.328;2024-01-07T06:08:03;21.92;;;13.20;;
29984;SDS011;17387;42.690;23.328;2024-01-07T06:10:28;20.58;;;11.98;;
29984;SDS011;17387;42.690;23.328;2024-01-07T06:12:53;21.90;;;11.98;;
29984;SDS011;17387;42.690;23.328;2024-01-07T06:15:19;21.77;;;12.80;;
29984;SDS011;17387;42.690;23.328;2024-01-07T06:17:44;21.48;;;13.48;;
29984;SDS011;17387;42.690;23.328;2024-01-07T06:20:11;19.40;;;12.98;;
29984;SDS011;17387;42.690;23.328;2024-01-07T06:22:36;20.87;;;13.17;;
29984;SDS011;17387;42.690;23.328;2024-01-07T06:25:01;23.15;;;13.70;;
29984;SDS011;17387;42.690;23.328;2024-01-07T06:27:27;21.63;;;13.98;;
29984;SDS011;17387;42.690;23.328;2024-01-07T06:29:52;22.75;;;14.30;;
29984;SDS011;17387;42.690;23.328;2024-01-07T06:32:17;24.90;;;13.50;;
29984;SDS011;17387;42.690;23.328;2024-01-07T06:34:43;24.60;;;15.02;;
29984;SDS011;17387;42.690;23.328;2024-01-07T06:37:08;24.00;;;14.93;;
29984;SDS011;17387;42.690;23.328;2024-01-07T06:39:35;22.48;;;14.05;;
29984;SDS011;17387;42.690;23.328;2024-01-07T06:42:00;24.42;;;14.43;;
29984;SDS011;17387;42.690;23.328;2024-01-07T06:44:25;24.02;;;14.48;;
29984;SDS011;17387;42.690;23.328;2024-01-07T06:46:51;35.13;;;20.70;;
29984;SDS011;17387;42.690;23.328;2024-01-07T06:49:16;28.02;;;15.70;;
29984;SDS011;17387;42.690;23.328;2024-01-07T06:51:41;27.38;;;14.65;;
29984;SDS011;17387;42.690;23.328;2024-01-07T06:54:07;23.00;;;14.00;;
29984;SDS011;17387;42.690;23.328;2024-01-07T06:56:32;21.13;;;13.32;;
29984;SDS011;17387;42.690;23.328;2024-01-07T06:58:57;23.63;;;13.80;;
29984;SDS011;17387;42.690;23.328;2024-01-07T07:01:22;24.52;;;14.27;;
29984;SDS011;17387;42.690;23.328;2024-01-07T07:03:50;24.13;;;13.48;;
29984;SDS011;17387;42.690;23.328;2024-01-07T07:06:16;25.77;;;14.75;;
29984;SDS011;17387;42.690;23.328;2024-01-07T07:08:41;25.60;;;15.70;;
29984;SDS011;17387;42.690;23.328;2024-01-07T07:11:06;24.75;;;14.98;;
29984;SDS011;17387;42.690;23.328;2024-01-07T07:13:32;23.58;;;15.02;;
29984;SDS011;17387;42.690;23.328;2024-01-07T07:15:57;25.70;;;15.13;;
29984;SDS011;17387;42.690;23.328;2024-01-07T07:18:22;24.35;;;15.27;;
29984;SDS011;17387;42.690;23.328;2024-01-07T07:20:47;26.05;;;15.18;;
29984;SDS011;17387;42.690;23.328;2024-01-07T07:23:13;20.52;;;14.35;;
29984;SDS011;17387;42.690;23.328;2024-01-07T07:25:38;23.73;;;15.30;;
29984;SDS011;17387;42.690;23.328;2024-01-07T07:28:04;21.33;;;14.27;;
29984;SDS011;17387;42.690;23.328;2024-01-07T07:30:29;24.05;;;14.15;;
29984;SDS011;17387;42.690;23.328;2024-01-07T07:32:55;21.15;;;12.63;;
29984;SDS011;17387;42.690;23.328;2024-01-07T07:35:20;21.80;;;12.93;;
29984;SDS011;17387;42.690;23.328;2024-01-07T07:37:45;18.98;;;12.57;;
29984;SDS011;17387;42.690;23.328;2024-01-07T07:40:11;20.65;;;12.13;;
29984;SDS011;17387;42.690;23.328;2024-01-07T07:42:38;21.58;;;11.13;;
29984;SDS011;17387;42.690;23.328;2024-01-07T07:45:03;24.80;;;13.00;;
29984;SDS011;17387;42.690;23.328;2024-01-07T07:47:28;19.23;;;12.18;;
29984;SDS011;17387;42.690;23.328;2024-01-07T07:49:54;18.55;;;12.35;;
29984;SDS011;17387;42.690;23.328;2024-01-07T07:52:19;18.73;;;12.23;;
29984;SDS011;17387;42.690;23.328;2024-01-07T07:54:48;21.30;;;12.00;;
29984;SDS011;17387;42.690;23.328;2024-01-07T07:57:14;16.85;;;11.25;;
29984;SDS011;17387;42.690;23.328;2024-01-07T07:59:39;19.88;;;12.27;;
29984;SDS011;17387;42.690;23.328;2024-01-07T08:02:04;19.40;;;11.73;;
29984;SDS011;17387;42.690;23.328;2024-01-07T08:04:30;21.65;;;11.60;;
29984;SDS011;17387;42.690;23.328;2024-01-07T08:06:55;18.80;;;11.60;;
29984;SDS011;17387;42.690;23.328;2024-01-07T08:09:21;23.77;;;12.43;;
29984;SDS011;17387;42.690;23.328;2024-01-07T08:11:47;22.05;;;13.20;;
29984;SDS011;17387;42.690;23.328;2024-01-07T08:14:12;24.92;;;16.52;;
29984;SDS011;17387;42.690;23.328;2024-01-07T08:16:37;24.73;;;17.88;;
29984;SDS011;17387;42.690;23.328;2024-01-07T08:19:03;27.80;;;18.67;;
29984;SDS011;17387;42.690;23.328;2024-01-07T08:21:28;29.48;;;19.83;;
29984;SDS011;17387;42.690;23.328;2024-01-07T08:23:53;27.75;;;18.45;;
29984;SDS011;17387;42.690;23.328;2024-01-07T08:26:19;28.00;;;18.13;;
29984;SDS011;17387;42.690;23.328;2024-01-07T08:28:44;87.55;;;35.10;;
29984;SDS011;17387;42.690;23.328;2024-01-07T08:31:10;28.45;;;15.93;;
29984;SDS011;17387;42.690;23.328;2024-01-07T08:33:35;25.08;;;16.90;;
29984;SDS011;17387;42.690;23.328;2024-01-07T08:36:00;23.52;;;15.50;;
29984;SDS011;17387;42.690;23.328;2024-01-07T08:38:26;26.88;;;16.73;;
29984;SDS011;17387;42.690;23.328;2024-01-07T08:40:51;35.78;;;18.83;;
29984;SDS011;17387;42.690;23.328;2024-01-07T08:43:16;42.80;;;23.25;;
29984;SDS011;17387;42.690;23.328;2024-01-07T08:45:41;32.28;;;19.13;;
29984;SDS011;17387;42.690;23.328;2024-01-07T08:48:07;29.10;;;17.30;;
29984;SDS011;17387;42.690;23.328;2024-01-07T08:50:32;28.98;;;18.13;;
29984;SDS011;17387;42.690;23.328;2024-01-07T08:52:57;26.90;;;17.52;;
29984;SDS011;17387;42.690;23.328;2024-01-07T08:55:23;23.38;;;14.90;;
29984;SDS011;17387;42.690;23.328;2024-01-07T08:57:48;24.80;;;15.70;;
29984;SDS011;17387;42.690;23.328;2024-01-07T09:00:14;27.00;;;15.75;;
29984;SDS011;17387;42.690;23.328;2024-01-07T09:02:39;19.95;;;13.98;;
29984;SDS011;17387;42.690;23.328;2024-01-07T09:05:05;20.08;;;13.75;;
29984;SDS011;17387;42.690;23.328;2024-01-07T09:07:31;26.15;;;15.40;;
29984;SDS011;17387;42.690;23.328;2024-01-07T09:09:57;33.45;;;18.50;;
29984;SDS011;17387;42.690;23.328;2024-01-07T09:12:24;24.83;;;15.75;;
29984;SDS011;17387;42.690;23.328;2024-01-07T09:14:50;22.77;;;14.18;;
29984;SDS011;17387;42.690;23.328;2024-01-07T09:17:15;23.48;;;15.32;;
29984;SDS011;17387;42.690;23.328;2024-01-07T09:19:42;23.48;;;15.30;;
29984;SDS011;17387;42.690;23.328;2024-01-07T09:22:07;22.13;;;14.30;;
29984;SDS011;17387;42.690;23.328;2024-01-07T09:27:16;21.83;;;14.00;;
29984;SDS011;17387;42.690;23.328;2024-01-07T09:29:41;21.87;;;13.33;;
29984;SDS011;17387;42.690;23.328;2024-01-07T09:32:07;39.38;;;20.10;;
29984;SDS011;17387;42.690;23.328;2024-01-07T09:34:32;23.73;;;13.13;;
29984;SDS011;17387;42.690;23.328;2024-01-07T09:36:57;20.98;;;12.90;;
29984;SDS011;17387;42.690;23.328;2024-01-07T09:39:23;19.88;;;13.70;;
29984;SDS011;17387;42.690;23.328;2024-01-07T09:41:48;20.08;;;12.60;;
29984;SDS011;17387;42.690;23.328;2024-01-07T09:44:13;20.63;;;13.68;;
29984;SDS011;17387;42.690;23.328;2024-01-07T09:46:39;25.48;;;15.20;;
29984;SDS011;17387;42.690;23.328;2024-01-07T09:49:04;21.33;;;13.00;;
29984;SDS011;17387;42.690;23.328;2024-01-07T09:51:30;22.10;;;14.00;;
29984;SDS011;17387;42.690;23.328;2024-01-07T09:53:57;18.00;;;13.30;;
29984;SDS011;17387;42.690;23.328;2024-01-07T09:56:25;20.65;;;13.52;;
29984;SDS011;17387;42.690;23.328;2024-01-07T09:58:50;23.40;;;15.25;;
29984;SDS011;17387;42.690;23.328;2024-01-07T10:01:19;26.80;;;15.05;;
29984;SDS011;17387;42.690;23.328;2024-01-07T10:03:44;20.65;;;12.95;;
29984;SDS011;17387;42.690;23.328;2024-01-07T10:06:10;23.83;;;14.60;;
29984;SDS011;17387;42.690;23.328;2024-01-07T10:08:35;17.30;;;12.43;;
29984;SDS011;17387;42.690;23.328;2024-01-07T10:11:00;23.63;;;13.63;;
29984;SDS011;17387;42.690;23.328;2024-01-07T10:13:27;13.60;;;9.40;;
29984;SDS011;17387;42.690;23.328;2024-01-07T10:15:53;17.55;;;10.63;;
29984;SDS011;17387;42.690;23.328;2024-01-07T10:18:18;14.68;;;10.23;;
29984;SDS011;17387;42.690;23.328;2024-01-07T10:20:43;18.02;;;10.70;;
29984;SDS011;17387;42.690;23.328;2024-01-07T10:23:09;20.05;;;12.80;;
29984;SDS011;17387;42.690;23.328;2024-01-07T10:25:35;13.13;;;9.25;;
29984;SDS011;17387;42.690;23.328;2024-01-07T10:28:00;18.75;;;11.07;;
29984;SDS011;17387;42.690;23.328;2024-01-07T10:30:26;18.63;;;10.82;;
29984;SDS011;17387;42.690;23.328;2024-01-07T10:32:55;16.33;;;9.95;;
29984;SDS011;17387;42.690;23.328;2024-01-07T10:35:21;14.63;;;8.32;;
29984;SDS011;17387;42.690;23.328;2024-01-07T10:37:47;14.77;;;8.77;;
29984;SDS011;17387;42.690;23.328;2024-01-07T10:40:12;11.63;;;6.75;;
29984;SDS011;17387;42.690;23.328;2024-01-07T10:42:38;10.90;;;7.20;;
29984;SDS011;17387;42.690;23.328;2024-01-07T10:45:03;43.55;;;17.05;;
29984;SDS011;17387;42.690;23.328;2024-01-07T10:47:31;11.30;;;6.85;;
29984;SDS011;17387;42.690;23.328;2024-01-07T10:49:58;17.42;;;7.78;;
29984;SDS011;17387;42.690;23.328;2024-01-07T10:52:24;16.35;;;9.50;;
29984;SDS011;17387;42.690;23.328;2024-01-07T10:54:51;13.65;;;8.10;;
29984;SDS011;17387;42.690;23.328;2024-01-07T11:00:01;11.82;;;7.15;;
29984;SDS011;17387;42.690;23.328;2024-01-07T11:02:32;16.60;;;9.40;;
29984;SDS011;17387;42.690;23.328;2024-01-07T11:07:34;29.50;;;14.80;;
29984;SDS011;17387;42.690;23.328;2024-01-07T11:10:10;59.72;;;26.10;;
29984;SDS011;17387;42.690;23.328;2024-01-07T11:12:36;16.27;;;9.45;;
29984;SDS011;17387;42.690;23.328;2024-01-07T11:15:01;21.55;;;11.55;;
29984;SDS011;17387;42.690;23.328;2024-01-07T11:22:25;18.77;;;8.80;;
29984;SDS011;17387;42.690;23.328;2024-01-07T11:24:52;24.85;;;13.38;;
29984;SDS011;17387;42.690;23.328;2024-01-07T11:27:18;10.68;;;5.70;;
29984;SDS011;17387;42.690;23.328;2024-01-07T11:29:43;16.77;;;9.43;;
29984;SDS011;17387;42.690;23.328;2024-01-07T11:32:12;9.27;;;5.72;;
29984;SDS011;17387;42.690;23.328;2024-01-07T11:34:41;8.73;;;5.60;;
29984;SDS011;17387;42.690;23.328;2024-01-07T11:37:12;11.23;;;6.10;;
29984;SDS011;17387;42.690;23.328;2024-01-07T11:39:38;21.05;;;10.48;;
29984;SDS011;17387;42.690;23.328;2024-01-07T11:42:04;13.77;;;6.78;;
29984;SDS011;17387;42.690;23.328;2024-01-07T11:44:29;17.67;;;8.95;;
29984;SDS011;17387;42.690;23.328;2024-01-07T11:46:58;8.80;;;5.45;;
29984;SDS011;17387;42.690;23.328;2024-01-07T11:49:23;11.68;;;6.72;;
29984;SDS011;17387;42.690;23.328;2024-01-07T11:51:48;12.65;;;7.22;;
29984;SDS011;17387;42.690;23.328;2024-01-07T11:54:14;16.02;;;9.10;;
29984;SDS011;17387;42.690;23.328;2024-01-07T11:56:39;12.07;;;7.20;;
29984;SDS011;17387;42.690;23.328;2024-01-07T11:59:05;9.23;;;5.57;;
29984;SDS011;17387;42.690;23.328;2024-01-07T12:01:31;11.07;;;6.55;;
29984;SDS011;17387;42.690;23.328;2024-01-07T12:03:56;12.32;;;7.00;;
29984;SDS011;17387;42.690;23.328;2024-01-07T12:06:22;13.38;;;7.25;;
29984;SDS011;17387;42.690;23.328;2024-01-07T12:08:47;82.43;;;28.17;;
29984;SDS011;17387;42.690;23.328;2024-01-07T12:11:14;14.30;;;6.75;;
29984;SDS011;17387;42.690;23.328;2024-01-07T12:13:41;19.30;;;8.27;;
29984;SDS011;17387;42.690;23.328;2024-01-07T12:16:07;11.35;;;6.55;;
29984;SDS011;17387;42.690;23.328;2024-01-07T12:18:32;21.00;;;10.57;;
29984;SDS011;17387;42.690;23.328;2024-01-07T12:20:58;11.35;;;5.50;;
29984;SDS011;17387;42.690;23.328;2024-01-07T12:23:24;11.20;;;5.07;;
29984;SDS011;17387;42.690;23.328;2024-01-07T12:25:51;7.68;;;4.97;;
29984;SDS011;17387;42.690;23.328;2024-01-07T12:28:19;15.00;;;8.60;;
29984;SDS011;17387;42.690;23.328;2024-01-07T12:30:44;23.02;;;11.30;;
29984;SDS011;17387;42.690;23.328;2024-01-07T12:33:10;12.23;;;6.60;;
29984;SDS011;17387;42.690;23.328;2024-01-07T12:35:35;25.92;;;11.85;;
29984;SDS011;17387;42.690;23.328;2024-01-07T12:38:01;9.93;;;5.35;;
29984;SDS011;17387;42.690;23.328;2024-01-07T12:40:26;16.33;;;8.23;;
29984;SDS011;17387;42.690;23.328;2024-01-07T12:42:52;143.70;;;49.77;;
29984;SDS011;17387;42.690;23.328;2024-01-07T12:45:17;15.45;;;8.15;;
29984;SDS011;17387;42.690;23.328;2024-01-07T12:47:43;43.83;;;20.77;;
29984;SDS011;17387;42.690;23.328;2024-01-07T12:50:09;78.53;;;45.42;;
29984;SDS011;17387;42.690;23.328;2024-01-07T12:52:37;30.20;;;18.35;;
29984;SDS011;17387;42.690;23.328;2024-01-07T12:55:03;19.20;;;10.43;;
29984;SDS011;17387;42.690;23.328;2024-01-07T12:57:29;12.50;;;6.20;;
29984;SDS011;17387;42.690;23.328;2024-01-07T12:59:54;24.50;;;12.63;;
29984;SDS011;17387;42.690;23.328;2024-01-07T13:02:19;10.13;;;6.47;;
29984;SDS011;17387;42.690;23.328;2024-01-07T13:04:45;14.90;;;7.80;;
29984;SDS011;17387;42.690;23.328;2024-01-07T13:07:10;12.40;;;6.78;;
29984;SDS011;17387;42.690;23.328;2024-01-07T13:09:36;9.13;;;5.35;;
29984;SDS011;17387;42.690;23.328;2024-01-07T13:12:01;12.80;;;7.53;;
29984;SDS011;17387;42.690;23.328;2024-01-07T13:14:27;25.85;;;15.65;;
29984;SDS011;17387;42.690;23.328;2024-01-07T13:16:52;24.35;;;13.57;;
29984;SDS011;17387;42.690;23.328;2024-01-07T13:19:18;20.55;;;10.52;;
29984;SDS011;17387;42.690;23.328;2024-01-07T13:21:43;15.73;;;9.37;;
29984;SDS011;17387;42.690;23.328;2024-01-07T13:24:08;54.05;;;29.50;;
29984;SDS011;17387;42.690;23.328;2024-01-07T13:26:33;33.70;;;18.20;;
29984;SDS011;17387;42.690;23.328;2024-01-07T13:28:59;15.93;;;9.23;;
29984;SDS011;17387;42.690;23.328;2024-01-07T13:31:24;55.47;;;22.73;;
29984;SDS011;17387;42.690;23.328;2024-01-07T13:33:49;16.55;;;8.18;;
29984;SDS011;17387;42.690;23.328;2024-01-07T13:36:14;40.83;;;18.37;;
29984;SDS011;17387;42.690;23.328;2024-01-07T13:38:40;23.40;;;11.93;;
29984;SDS011;17387;42.690;23.328;2024-01-07T13:41:09;29.63;;;14.98;;
29984;SDS011;17387;42.690;23.328;2024-01-07T13:43:35;43.70;;;21.38;;
29984;SDS011;17387;42.690;23.328;2024-01-07T13:46:02;33.22;;;15.50;;
29984;SDS011;17387;42.690;23.328;2024-01-07T13:48:28;12.02;;;7.50;;
29984;SDS011;17387;42.690;23.328;2024-01-07T13:50:53;14.07;;;7.88;;
29984;SDS011;17387;42.690;23.328;2024-01-07T13:53:19;14.15;;;7.80;;
29984;SDS011;17387;42.690;23.328;2024-01-07T13:55:44;19.07;;;9.20;;
29984;SDS011;17387;42.690;23.328;2024-01-07T13:58:11;94.25;;;34.78;;
29984;SDS011;17387;42.690;23.328;2024-01-07T14:00:36;18.08;;;8.82;;
29984;SDS011;17387;42.690;23.328;2024-01-07T14:03:03;14.65;;;8.18;;
29984;SDS011;17387;42.690;23.328;2024-01-07T14:05:28;206.25;;;76.50;;
29984;SDS011;17387;42.690;23.328;2024-01-07T14:07:53;216.95;;;73.78;;
29984;SDS011;17387;42.690;23.328;2024-01-07T14:10:18;27.40;;;12.63;;
29984;SDS011;17387;42.690;23.328;2024-01-07T14:12:44;24.20;;;10.38;;
29984;SDS011;17387;42.690;23.328;2024-01-07T14:15:10;44.63;;;22.23;;